Peshawar Weather



Peshawar's Current Weather

Temprature 37.86o clear sky

clear sky

Rain: 0 %

Min Temprature37.86o
Max Temprature37.86o
Humidity38
Wind Speed5.48 m/h
Sun Rise05:33:57
Sun Set19:03:17
Current Time: 13-Aug-2020 18:47:30
Lat/Lon: 34.01, 71.58




Peshawar's Geo Location



Peshawar's Weather Forecast

Time Overall Temp Min Temp Max Temp Humidity Wind Speed Rain
13-Aug-2020 (Thu)
20:00:00 clear sky 39.250 37.090 39.250 34 5.03 m/h 0 %
23:00:00 clear sky 36.940 35.740 36.940 43 3.33 m/h 0 %
14-Aug-2020 (Fri)
02:00:00 light rain 32.590 31.990 32.590 61 2.29 m/h 122 %
05:00:00 light rain 29.840 29.750 29.840 74 2.48 m/h 147 %
08:00:00 light rain 30.830 30.830 30.830 68 2.06 m/h 27 %
11:00:00 clear sky 35.030 35.030 35.030 50 2.34 m/h 0 %
14:00:00 few clouds 38.410 38.410 38.410 36 2.99 m/h 0 %
17:00:00 clear sky 38.860 38.860 38.860 36 5.31 m/h 0 %
20:00:00 clear sky 34.830 34.830 34.830 51 4.11 m/h 0 %
23:00:00 clear sky 33.500 33.500 33.500 54 2.71 m/h 0 %
15-Aug-2020 (Sat)
02:00:00 light rain 31.610 31.610 31.610 59 3.52 m/h 31 %
05:00:00 clear sky 30.090 30.090 30.090 65 2.41 m/h 0 %
08:00:00 clear sky 30.940 30.940 30.940 63 1.94 m/h 0 %
11:00:00 clear sky 35.220 35.220 35.220 49 1.5 m/h 0 %
14:00:00 clear sky 39.070 39.070 39.070 34 1.91 m/h 0 %
17:00:00 clear sky 40.020 40.020 40.020 32 3.51 m/h 0 %
20:00:00 clear sky 35.930 35.930 35.930 46 3.05 m/h 0 %
23:00:00 clear sky 34.510 34.510 34.510 51 2.54 m/h 0 %
16-Aug-2020 (Sun)
02:00:00 light rain 33.110 33.110 33.110 55 1.83 m/h 40 %
05:00:00 light rain 31.600 31.600 31.600 61 1.94 m/h 137 %
08:00:00 few clouds 32.490 32.490 32.490 59 1.92 m/h 0 %
11:00:00 few clouds 36.410 36.410 36.410 47 0.95 m/h 0 %
14:00:00 clear sky 39.820 39.820 39.820 34 1.74 m/h 0 %
17:00:00 clear sky 40.990 40.990 40.990 30 1.95 m/h 0 %
20:00:00 clear sky 36.860 36.860 36.860 45 5.12 m/h 0 %
23:00:00 clear sky 35.340 35.340 35.340 50 2.55 m/h 0 %
17-Aug-2020 (Mon)
02:00:00 light rain 33.550 33.550 33.550 56 2.23 m/h 54 %
05:00:00 light rain 31.710 31.710 31.710 65 1.88 m/h 269 %
08:00:00 light rain 32.780 32.780 32.780 61 1.29 m/h 119 %
11:00:00 light rain 36.610 36.610 36.610 47 1.88 m/h 230 %
14:00:00 clear sky 39.850 39.850 39.850 36 3.09 m/h 0 %
17:00:00 few clouds 38.940 38.940 38.940 41 6.69 m/h 0 %
20:00:00 few clouds 35.570 35.570 35.570 51 4.16 m/h 0 %
23:00:00 light rain 34.150 34.150 34.150 55 0.95 m/h 92 %
18-Aug-2020 (Tue)
02:00:00 light rain 33.020 33.020 33.020 59 1.88 m/h 21 %
05:00:00 moderate rain 29.650 29.650 29.650 72 3.35 m/h 308 %
08:00:00 light rain 30.540 30.540 30.540 69 2.42 m/h 83 %
11:00:00 scattered clouds 34.110 34.110 34.110 56 1.73 m/h 0 %
14:00:00 few clouds 37.710 37.710 37.710 44 2.32 m/h 0 %
17:00:00 scattered clouds 37.840 37.840 37.840 44 4.74 m/h 0 %

Famous Cities (60)